x

Cape Elizabeth- 45nm Nw Of Aberdeen, Wa (46041) Wave Buoy

5:50 - Mon 27th Mar 2017 All times are PDT. -7 hours from GMT.

  • Sig Wave height 11.5ft
  • Swell Direction
  • Peak Period 13s
  • Average Period 9s
  • Wind
    18mph, 22mph gusts
  • Sea Temp 50°f
  • Luft Temp 47°f
  • Sea Pressure 1022.1mb
  • Cape Elizabeth- 45nm Nw Of Aberdeen, Wa
  • Cape Elizabeth- 45nm Nw Of Aberdeen, Wa

More Historic Weather Station data

Upgrade to MSW Pro to gain access to the past 30 days of data for over 8000 Wavebouys and Weather Stations around the globe.

Join Pro

Comparision Forecast

View Surf forecast
   
Mo 03/27 5:50 11.5ft 13s 9s 18 22 mph 1022.1mb 50f 47f
4:50 12.5ft 12s 9s 16 18 mph 1021.8mb 50f 47f
3:50 11.5ft 13s 9s 13 20 mph 1021.3mb 50f 47f
2:50 9.5ft 12s 8s 16 18 mph 1021.1mb 50f 48f
1:50 9ft 10s 8s 18 22 mph 1020mb 50f 49f
12:50 7ft 10s 7s 18 25 mph 1018.9mb 50f 48f
11:50 7ft 10s 7s 16 18 mph 1018.6mb 50f 48f
9:50 7ft 9s 7s 13 18 mph 1015.9mb 50f 48f
8:50 7ft 9s 7s 18 20 mph 1015.3mb 50f 48f
7:50 7ft 8s 6s 16 18 mph 1013.9mb 50f 48f
6:50 8ft 8s 7s 18 22 mph 1013.2mb 50f 48f
5:50 8ft 8s 7s 18 22 mph 1012.4mb 50f 47f
4:50 7.5ft 9s 6s 18 20 mph 1011.2mb 50f 48f
3:50 8ft 10s 6s 20 22 mph 1010.5mb 50f 48f
2:50 9ft 10s 7s 18 22 mph 1009.9mb 50f 49f
1:50 8ft 9s 7s 16 20 mph 1009.7mb 50f 46f
12:50 8ft 11s 7s 18 20 mph 1009.1mb 50f 49f
So 03/26 11:50 8ft 9s 7s 16 20 mph 1008.9mb 50f 49f
10:50 8ft 9s 7s 18 22 mph 1008.5mb 50f 49f
9:50 7.5ft 9s 7s 16 20 mph 1007.8mb 50f 49f
8:50 8ft 9s 7s 16 18 mph 1007.5mb 50f 48f
7:50 7.5ft 10s 7s 13 18 mph 1007.4mb 50f 49f
6:50 9ft 10s 7s 13 16 mph 1006.9mb 50f 49f
5:50 9ft 9s 7s 9 11 mph 1006.3mb 50f 49f
4:50 10.5ft 10s 7s 7 9 mph 1005.7mb 50f 48f
3:50 10ft 10s 7s 25 29 mph 1004.7mb 50f 46f
2:50 11ft 8s 6s 27 36 mph 1003.9mb 50f 45f
1:50 10.5ft 8s 6s 27 31 mph 1004.1mb 50f 45f
12:50 9ft 8s 6s 27 34 mph 1004.2mb 50f 46f
11:50 10ft 8s 6s 29 36 mph 1004.5mb 49f 46f
10:50 10ft 6s 6s 31 38 mph 1004.7mb 49f 45f
9:50 9ft 5s 6s 31 38 mph 1005mb 49f 45f
8:50 8ft 5s 6s 31 38 mph 1005.4mb 49f 45f
7:50 8ft 12s 6s 29 36 mph 1006.2mb 49f 45f
6:50 8ft 13s 6s 29 36 mph 1007.1mb 50f 45f
5:50 8ft 10s 6s 27 34 mph 1008.1mb 50f 45f
4:50 8ft 13s 6s 25 29 mph 1009.1mb 50f 45f
3:50 8ft 13s 7s 25 31 mph 1010.3mb 50f 46f
2:50 8ft 10s 6s 25 29 mph 1011.5mb 50f 46f
1:50 9ft 13s 7s 25 31 mph 1012.3mb 50f 46f
12:50 8ft 13s 7s 22 27 mph 1013.3mb 50f 47f
Sa 03/25 11:50 8ft 13s 7s 20 25 mph 1014.1mb 49f 47f
10:50 10ft 13s 8s 18 22 mph 1015mb 50f 47f
9:50 9.5ft 10s 9s 16 22 mph 1015.4mb 50f 47f
8:50 10ft 9s 9s 13 18 mph 1016.4mb 50f 46f
7:50 9.5ft 9s 9s 11 13 mph 1017.2mb 50f 46f
6:50 10.5ft 14s 9s 9 13 mph 1018.1mb 50f 46f
5:50 9ft 14s 9s 9 11 mph 1018.6mb 50f 46f
4:50 9.5ft 14s 9s 9 11 mph 1019.5mb 50f 46f
3:50 8.5ft 14s 8s 13 20 mph 1019.9mb 50f 45f
2:50 9ft 10s 8s 9 11 mph 1020mb 50f 47f
1:50 9.5ft 14s 8s 7 9 mph 1020mb 50f 46f
12:50 10.5ft 10s 8s 11 13 mph 1019.8mb 50f 46f
11:50 10.5ft 10s 8s 2 4 mph 1019.9mb 49f 46f
10:50 12ft 10s 8s 9 11 mph 1019.7mb 49f 44f
9:50 11ft 10s 8s 7 11 mph 1019.3mb 49f 46f
8:50 11ft 10s 8s 9 13 mph 1019mb 49f 46f
7:50 10ft 10s 8s 9 11 mph 1018.4mb 49f 46f
6:50 9.5ft 10s 7s 9 13 mph 1018.4mb 49f 46f
5:50 10ft 9s 8s 13 16 mph 1018.1mb 49f 46f
4:50 9.5ft 9s 8s 13 16 mph 1017.6mb 49f 46f
3:50 9.5ft 10s 7s 13 20 mph 1017.3mb 50f 47f
2:50 9.5ft 11s 7s 13 18 mph 1017.1mb 50f 47f
1:50 10.5ft 11s 8s 16 20 mph 1016.5mb 50f 47f
12:50 10ft 11s 8s 18 20 mph 1015.8mb 50f 47f
Fr 03/24 11:50 9.5ft 11s 7s 18 22 mph 1014.8mb 50f 47f
10:50 10ft 11s 7s 18 25 mph 1014.2mb 50f 47f
9:50 9ft 11s 7s 20 25 mph 1013.5mb 50f 47f
8:50 10.5ft 11s 7s 20 29 mph 1012.7mb 50f 47f
7:50 10ft 12s 7s 25 29 mph 1011.9mb 50f 49f
6:50 12ft 11s 8s 20 25 mph 1011.3mb 50f 49f
5:50 11.5ft 11s 8s 20 27 mph 1010.7mb 50f 49f
4:50 11ft 11s 7s 22 27 mph 1010.2mb 50f 49f
3:50 12.5ft 11s 8s 20 27 mph 1009.4mb 50f 49f
2:50 13ft 11s 8s 20 25 mph 1008.9mb 50f 49f
1:50 13ft 11s 8s 16 20 mph 1008.4mb 50f 49f
12:50 13ft 11s 8s 18 22 mph 1008mb 50f 49f
11:50 13.5ft 11s 8s 20 25 mph 1007.2mb 50f 50f
10:50 14ft 11s 8s 22 29 mph 1006.8mb 50f 50f
9:50 15ft 11s 9s 20 27 mph 1006.1mb 50f 50f
8:50 13ft 12s 9s 20 25 mph 1005.9mb 50f 49f
7:50 13.5ft 12s 9s 16 22 mph 1006mb 50f 49f
6:50 14ft 11s 9s 16 20 mph 1006.2mb 50f 49f
5:50 15.5ft 11s 9s 13 18 mph 1006.1mb 50f 49f
4:50 15ft 12s 9s 13 18 mph 1005.9mb 50f 49f
3:50 15.5ft 12s 8s 16 20 mph 1006.2mb 50f 49f
2:50 18ft 11s 9s 18 25 mph 1006.5mb 50f 49f